createdAt,value
2022-12-13T00:00:21.002Z,11.43
2022-12-13T00:00:54.263Z,10.27
2022-12-13T00:01:27.256Z,11.75
2022-12-13T00:02:00.083Z,12.27
2022-12-13T00:02:31.947Z,10.50
2022-12-13T00:03:03.950Z,11.18
2022-12-13T00:03:36.782Z,10.60
2022-12-13T00:04:10.285Z,13.02
2022-12-13T00:04:43.143Z,11.95
2022-12-13T00:05:15.358Z,11.15
2022-12-13T00:05:47.414Z,14.07
2022-12-13T00:06:20.674Z,11.85
2022-12-13T00:06:53.902Z,9.90
2022-12-13T00:07:28.101Z,11.50
2022-12-13T00:08:00.875Z,14.45
2022-12-13T00:08:32.771Z,9.52
2022-12-13T00:09:08.249Z,12.02
2022-12-13T00:09:42.280Z,11.93
2022-12-13T00:10:14.120Z,9.20
2022-12-13T00:10:46.872Z,11.40
2022-12-13T00:11:18.747Z,11.05
2022-12-13T00:11:52.122Z,11.80
2022-12-13T00:12:23.929Z,12.20
2022-12-13T00:12:56.132Z,10.70
2022-12-13T00:13:29.422Z,12.48
2022-12-13T00:14:01.795Z,10.32
2022-12-13T00:14:34.659Z,12.85
2022-12-13T00:15:07.357Z,10.02
2022-12-13T00:15:39.152Z,10.23
2022-12-13T00:16:15.338Z,10.55
2022-12-13T00:16:48.464Z,10.52
2022-12-13T00:17:21.299Z,11.02
2022-12-13T00:17:53.125Z,13.93
2022-12-13T00:18:25.105Z,11.88
2022-12-13T00:19:00.210Z,13.32
2022-12-13T00:19:31.992Z,12.38
2022-12-13T00:20:05.537Z,10.02
2022-12-13T00:20:40.072Z,10.02
2022-12-13T00:21:14.541Z,11.63
2022-12-13T00:21:48.219Z,10.65
2022-12-13T00:22:20.028Z,11.77
2022-12-13T00:22:54.188Z,13.27
2022-12-13T00:23:26.045Z,10.30
2022-12-13T00:23:58.953Z,10.57
2022-12-13T00:24:31.737Z,11.88
2022-12-13T00:25:04.626Z,11.85
2022-12-13T00:25:36.416Z,11.80
2022-12-13T00:26:12.615Z,11.32
2022-12-13T00:26:44.477Z,11.88
2022-12-13T00:27:17.264Z,14.25
2022-12-13T00:27:49.097Z,9.40
2022-12-13T00:28:20.888Z,12.18
2022-12-13T00:28:54.116Z,12.40
2022-12-13T00:29:26.039Z,12.10
2022-12-13T00:29:58.824Z,10.05
2022-12-13T00:30:31.598Z,10.10
2022-12-13T00:31:26.958Z,12.48
2022-12-13T00:32:00.678Z,13.15
2022-12-13T00:32:33.005Z,11.30
2022-12-13T00:33:04.852Z,9.88
2022-12-13T00:33:39.564Z,11.48
2022-12-13T00:34:11.354Z,10.38
2022-12-13T00:34:44.132Z,17.98
2022-12-13T00:35:16.200Z,14.43
2022-12-13T00:35:48.119Z,9.82
2022-12-13T00:36:21.083Z,12.05
2022-12-13T00:36:53.709Z,11.63
2022-12-13T00:37:26.806Z,12.10
2022-12-13T00:37:59.981Z,11.32
2022-12-13T00:38:31.852Z,11.63
2022-12-13T00:39:04.872Z,14.15
2022-12-13T00:39:36.719Z,12.50
2022-12-13T00:40:11.190Z,13.02
2022-12-13T00:40:42.967Z,9.82
2022-12-13T00:41:16.985Z,10.73
2022-12-13T00:41:49.754Z,10.77
2022-12-13T00:42:21.639Z,11.18
2022-12-13T00:42:54.439Z,12.07
2022-12-13T00:43:26.278Z,10.93
2022-12-13T00:43:58.972Z,12.45
2022-12-13T00:44:32.147Z,11.30
2022-12-13T00:45:04.712Z,10.50
2022-12-13T00:45:38.084Z,11.77
2022-12-13T00:46:15.572Z,12.80
2022-12-13T00:46:47.561Z,12.80
2022-12-13T00:47:22.132Z,18.02
2022-12-13T00:47:53.936Z,14.35
2022-12-13T00:48:25.716Z,15.85
2022-12-13T00:49:00.959Z,13.00
2022-12-13T00:49:32.734Z,16.75
2022-12-13T00:50:06.628Z,14.02
2022-12-13T00:50:38.639Z,11.95
2022-12-13T00:51:11.788Z,12.23
2022-12-13T00:51:44.663Z,12.40
2022-12-13T00:52:16.505Z,12.32
2022-12-13T00:52:48.339Z,11.18
2022-12-13T00:53:21.477Z,12.07
2022-12-13T00:53:54.510Z,12.70
2022-12-13T00:54:26.305Z,11.25
2022-12-13T00:54:59.045Z,13.10
2022-12-13T00:55:30.988Z,13.88
2022-12-13T00:56:03.122Z,12.68
2022-12-13T00:56:38.264Z,10.90
2022-12-13T00:57:10.070Z,11.40
2022-12-13T00:57:41.902Z,11.25
2022-12-13T00:58:14.669Z,13.23
2022-12-13T00:58:51.618Z,11.35
2022-12-13T00:59:24.085Z,11.05
2022-12-13T00:59:56.866Z,14.60
2022-12-13T01:00:28.655Z,12.15
2022-12-13T01:01:04.579Z,15.38
2022-12-13T01:01:37.901Z,11.93
2022-12-13T01:02:09.752Z,12.35
2022-12-13T01:02:43.376Z,12.98
2022-12-13T01:03:20.386Z,13.43
2022-12-13T01:03:55.237Z,14.07
2022-12-13T01:04:27.115Z,15.63
2022-12-13T01:04:59.235Z,13.57
2022-12-13T01:06:11.138Z,12.52
2022-12-13T01:06:28.910Z,13.40
2022-12-13T01:07:02.073Z,11.05
2022-12-13T01:07:33.883Z,13.38
2022-12-13T01:08:05.731Z,13.98
2022-12-13T01:08:40.068Z,19.63
2022-12-13T01:09:17.205Z,15.25
2022-12-13T01:09:50.042Z,11.55
2022-12-13T01:10:22.147Z,10.98
2022-12-13T01:10:54.376Z,14.10
2022-12-13T01:11:27.413Z,14.65
2022-12-13T01:12:01.096Z,12.85
2022-12-13T01:12:34.043Z,15.77
2022-12-13T01:13:05.969Z,11.48
2022-12-13T01:13:38.163Z,13.85
2022-12-13T01:14:11.016Z,11.65
2022-12-13T01:14:43.108Z,12.95
2022-12-13T01:15:16.141Z,12.63
2022-12-13T01:15:48.457Z,10.80
2022-12-13T01:16:20.305Z,14.07
2022-12-13T01:16:55.612Z,17.33
2022-12-13T01:17:27.843Z,11.73
2022-12-13T01:17:59.636Z,13.43
2022-12-13T01:18:33.171Z,10.38
2022-12-13T01:19:04.996Z,14.73
2022-12-13T01:19:36.856Z,11.52
2022-12-13T01:20:11.443Z,13.48
2022-12-13T01:20:43.224Z,12.32
2022-12-13T01:21:16.929Z,13.10
2022-12-13T01:21:49.752Z,11.00
2022-12-13T01:22:21.573Z,11.75
2022-12-13T01:22:53.366Z,11.25
2022-12-13T01:23:26.350Z,10.82
2022-12-13T01:24:03.476Z,17.23
2022-12-13T01:24:36.260Z,15.65
2022-12-13T01:25:08.724Z,14.65
2022-12-13T01:25:40.540Z,11.02
2022-12-13T01:26:17.468Z,12.07
2022-12-13T01:26:49.288Z,12.43
2022-12-13T01:27:22.073Z,11.70
2022-12-13T01:27:53.923Z,11.70
2022-12-13T01:28:25.777Z,11.35
2022-12-13T01:28:59.240Z,14.85
2022-12-13T01:29:31.263Z,12.57
2022-12-13T01:30:04.384Z,13.50
2022-12-13T01:30:36.234Z,13.48
2022-12-13T01:31:10.436Z,13.80
2022-12-13T01:31:43.470Z,12.27
2022-12-13T01:32:15.289Z,13.02
2022-12-13T01:32:47.123Z,12.43
2022-12-13T01:33:18.931Z,16.45
2022-12-13T01:33:51.762Z,12.07
2022-12-13T01:34:26.451Z,13.65
2022-12-13T01:34:59.657Z,11.80
2022-12-13T01:35:34.481Z,11.50
2022-12-13T01:36:09.688Z,14.70
2022-12-13T01:36:44.358Z,12.35
2022-12-13T01:37:17.493Z,12.55
2022-12-13T01:37:49.289Z,13.02
2022-12-13T01:38:26.243Z,14.45
2022-12-13T01:38:59.400Z,11.85
2022-12-13T01:39:38.178Z,13.30
2022-12-13T01:40:16.138Z,13.82
2022-12-13T01:40:51.228Z,11.30
2022-12-13T01:41:27.321Z,11.43
2022-12-13T01:42:02.636Z,11.88
2022-12-13T01:42:37.085Z,10.95
2022-12-13T01:43:14.241Z,11.45
2022-12-13T01:44:01.102Z,13.40
2022-12-13T01:44:58.768Z,11.32
2022-12-13T01:45:30.782Z,10.05
2022-12-13T01:46:02.659Z,11.95
2022-12-13T01:46:36.932Z,13.70
2022-12-13T01:47:09.294Z,12.43
2022-12-13T01:47:45.753Z,12.48
2022-12-13T01:48:24.697Z,10.63
2022-12-13T01:49:01.337Z,12.60
2022-12-13T01:49:33.315Z,10.27
2022-12-13T01:50:10.612Z,13.82
2022-12-13T01:50:47.005Z,13.27
2022-12-13T01:51:23.427Z,12.10
2022-12-13T01:52:03.957Z,10.45
2022-12-13T01:52:36.443Z,12.15
2022-12-13T01:53:11.761Z,10.63
2022-12-13T01:53:47.799Z,11.55
2022-12-13T01:54:24.674Z,11.68
2022-12-13T01:55:09.251Z,10.90
2022-12-13T01:55:43.568Z,13.88
2022-12-13T01:56:22.066Z,14.27
2022-12-13T01:57:01.020Z,11.60
2022-12-13T01:57:34.856Z,11.57
2022-12-13T01:58:07.825Z,11.27
2022-12-13T01:58:40.744Z,12.90
2022-12-13T01:59:15.246Z,10.88
2022-12-13T01:59:49.023Z,15.43
2022-12-13T02:00:20.899Z,11.18
2022-12-13T02:00:53.872Z,12.70
2022-12-13T02:01:25.947Z,10.25
2022-12-13T02:02:00.880Z,13.13
2022-12-13T02:02:34.294Z,12.13
2022-12-13T02:03:06.181Z,12.57
2022-12-13T02:03:38.058Z,15.75
2022-12-13T02:04:10.987Z,16.38
2022-12-13T02:04:49.978Z,12.70
2022-12-13T02:05:26.956Z,12.07
2022-12-13T02:06:04.168Z,12.38
2022-12-13T02:06:38.754Z,14.65
2022-12-13T02:07:11.574Z,11.13
2022-12-13T02:07:46.085Z,11.57
2022-12-13T02:08:19.402Z,12.23
2022-12-13T02:08:51.286Z,13.30
2022-12-13T02:09:24.460Z,10.18
2022-12-13T02:10:00.157Z,11.88
2022-12-13T02:10:34.363Z,11.38
2022-12-13T02:11:07.646Z,14.85
2022-12-13T02:11:41.865Z,15.05
2022-12-13T02:12:14.779Z,13.27
2022-12-13T02:12:46.711Z,12.75
2022-12-13T02:13:19.571Z,15.23
2022-12-13T02:13:51.397Z,16.92
2022-12-13T02:14:23.198Z,12.18
2022-12-13T02:14:57.562Z,9.90
2022-12-13T02:15:39.438Z,14.18
2022-12-13T02:16:22.587Z,10.25
2022-12-13T02:17:04.090Z,13.63
2022-12-13T02:17:50.768Z,10.15
2022-12-13T02:18:44.064Z,11.50
2022-12-13T02:20:03.812Z,9.10
2022-12-13T02:21:11.393Z,14.30
2022-12-13T02:21:53.931Z,13.95
2022-12-13T02:22:48.990Z,10.40
2022-12-13T02:23:41.232Z,11.20
2022-12-13T02:24:40.646Z,10.27
2022-12-13T02:25:30.631Z,14.00
2022-12-13T02:26:29.099Z,11.32
2022-12-13T02:27:13.422Z,11.63
2022-12-13T02:28:30.614Z,12.68
2022-12-13T02:29:30.282Z,11.88
2022-12-13T02:30:27.909Z,15.43
2022-12-13T02:31:07.783Z,12.65
2022-12-13T02:31:48.781Z,9.88
2022-12-13T02:32:28.989Z,11.68
2022-12-13T02:33:29.427Z,13.48
2022-12-13T02:34:05.480Z,13.10
2022-12-13T02:34:40.388Z,12.98
2022-12-13T02:35:19.732Z,11.85
2022-12-13T02:36:04.637Z,12.90
2022-12-13T02:36:43.968Z,14.98
2022-12-13T02:37:23.960Z,13.10
2022-12-13T02:38:02.220Z,13.85
2022-12-13T02:38:41.568Z,12.82
2022-12-13T02:39:30.593Z,14.40
2022-12-13T02:40:09.831Z,12.20
2022-12-13T02:40:46.406Z,11.95
2022-12-13T02:41:26.311Z,13.48
2022-12-13T02:42:01.728Z,12.82
2022-12-13T02:42:37.900Z,14.60
2022-12-13T02:43:15.015Z,11.98
2022-12-13T02:43:50.464Z,13.98
2022-12-13T02:44:27.607Z,12.88
2022-12-13T02:45:07.156Z,12.25
2022-12-13T02:45:45.072Z,13.90
2022-12-13T02:46:22.237Z,18.27
2022-12-13T02:46:58.169Z,42.78
2022-12-13T02:47:31.791Z,31.08
2022-12-13T02:48:06.894Z,26.38
2022-12-13T02:48:42.325Z,23.77
2022-12-13T02:49:16.631Z,21.13
2022-12-13T02:49:52.005Z,17.95
2022-12-13T02:50:26.180Z,16.70
2022-12-13T02:51:01.073Z,14.07
2022-12-13T02:51:34.074Z,14.80
2022-12-13T02:52:08.425Z,16.08
2022-12-13T02:52:42.921Z,14.13
2022-12-13T02:53:16.161Z,13.63
2022-12-13T02:53:49.488Z,12.48
2022-12-13T02:54:21.268Z,14.43
2022-12-13T02:54:54.713Z,14.57
2022-12-13T02:55:28.667Z,13.80
2022-12-13T02:56:00.548Z,12.73
2022-12-13T02:56:32.717Z,14.50
2022-12-13T02:57:05.618Z,14.38
2022-12-13T02:57:39.834Z,14.43
2022-12-13T02:58:13.325Z,15.63
2022-12-13T02:58:50.072Z,16.75
2022-12-13T02:59:24.848Z,15.48
2022-12-13T02:59:57.810Z,15.73
2022-12-13T03:00:42.523Z,11.55
2022-12-13T03:01:31.126Z,12.02
2022-12-13T03:02:21.708Z,9.85
2022-12-13T03:03:18.559Z,11.77
2022-12-13T03:04:01.538Z,15.10
2022-12-13T03:05:03.215Z,16.20
2022-12-13T03:06:03.466Z,14.85
2022-12-13T03:06:45.124Z,13.68
2022-12-13T03:07:26.104Z,10.85
2022-12-13T03:08:11.774Z,11.88
2022-12-13T03:08:52.964Z,13.18
2022-12-13T03:09:41.664Z,12.63
2022-12-13T03:10:20.053Z,14.02
2022-12-13T03:11:03.764Z,13.32
2022-12-13T03:12:08.669Z,12.63
2022-12-13T03:13:04.633Z,12.88
2022-12-13T03:13:48.346Z,12.88
2022-12-13T03:14:22.554Z,13.90
2022-12-13T03:15:01.063Z,14.10
2022-12-13T03:15:39.599Z,15.05
2022-12-13T03:16:26.030Z,14.55
2022-12-13T03:17:01.724Z,11.85
2022-12-13T03:17:39.512Z,14.65
2022-12-13T03:18:16.361Z,15.50
2022-12-13T03:18:49.208Z,12.95
2022-12-13T03:19:23.243Z,13.00
2022-12-13T03:19:55.231Z,14.32
2022-12-13T03:20:29.203Z,13.93
2022-12-13T03:21:04.375Z,13.77
2022-12-13T03:21:43.932Z,14.32
2022-12-13T03:22:20.049Z,11.65
2022-12-13T03:22:52.254Z,13.57
2022-12-13T03:23:24.269Z,14.10
2022-12-13T03:23:57.118Z,15.15
2022-12-13T03:24:28.932Z,13.30
2022-12-13T03:25:00.850Z,14.63
2022-12-13T03:25:33.650Z,12.25
2022-12-13T03:26:09.147Z,14.98
2022-12-13T03:26:41.166Z,13.30
2022-12-13T03:27:14.455Z,16.30
2022-12-13T03:27:46.299Z,12.82
2022-12-13T03:28:18.150Z,14.05
2022-12-13T03:28:51.266Z,14.82
2022-12-13T03:29:24.784Z,11.05
2022-12-13T03:29:57.446Z,16.67
2022-12-13T03:30:30.502Z,12.88
2022-12-13T03:31:02.400Z,15.20
2022-12-13T03:31:36.621Z,12.15
2022-12-13T03:32:08.508Z,12.60
2022-12-13T03:32:40.330Z,12.57
2022-12-13T03:33:13.154Z,15.82
2022-12-13T03:33:45.388Z,14.98
2022-12-13T03:34:22.840Z,14.98
2022-12-13T03:35:00.495Z,12.30
2022-12-13T03:35:34.241Z,11.68
2022-12-13T03:36:18.811Z,12.68
2022-12-13T03:36:50.752Z,15.30
2022-12-13T03:37:22.613Z,13.93
2022-12-13T03:37:55.466Z,14.32
2022-12-13T03:38:27.583Z,11.50
2022-12-13T03:39:00.415Z,11.93
2022-12-13T03:39:32.288Z,13.57
2022-12-13T03:40:04.976Z,14.32
2022-12-13T03:40:38.196Z,12.88
2022-12-13T03:41:13.706Z,15.88
2022-12-13T03:41:45.702Z,12.70
2022-12-13T03:42:18.723Z,14.75
2022-12-13T03:42:50.529Z,13.23
2022-12-13T03:43:23.755Z,15.38
2022-12-13T03:43:55.653Z,14.55
2022-12-13T03:44:31.452Z,13.27
2022-12-13T03:45:03.949Z,13.35
2022-12-13T03:45:35.892Z,12.80
2022-12-13T03:46:09.434Z,17.33
2022-12-13T03:46:42.772Z,12.30
2022-12-13T03:47:15.853Z,14.32
2022-12-13T03:47:47.664Z,14.98
2022-12-13T03:48:21.674Z,14.77
2022-12-13T03:48:55.838Z,10.93
2022-12-13T03:49:27.645Z,20.55
2022-12-13T03:50:28.345Z,11.90
2022-12-13T03:51:01.056Z,12.70
2022-12-13T03:51:32.924Z,17.80
2022-12-13T03:52:04.792Z,13.38
2022-12-13T03:52:37.545Z,13.27
2022-12-13T03:53:09.367Z,14.98
2022-12-13T03:53:56.257Z,13.82
2022-12-13T03:54:28.061Z,13.40
2022-12-13T03:54:59.904Z,11.75
2022-12-13T03:55:32.750Z,11.18
2022-12-13T03:56:06.234Z,13.88
2022-12-13T03:56:39.042Z,15.48
2022-12-13T03:57:10.859Z,13.02
2022-12-13T03:57:42.645Z,13.00
2022-12-13T03:58:15.413Z,15.20
2022-12-13T03:58:47.231Z,14.23
2022-12-13T03:59:19.175Z,15.95
2022-12-13T03:59:51.958Z,14.68
2022-12-13T04:00:24.003Z,12.60
2022-12-13T04:00:55.833Z,13.70
2022-12-13T04:01:28.598Z,15.00
2022-12-13T04:02:01.861Z,14.30
2022-12-13T04:02:33.690Z,15.70
2022-12-13T04:03:06.747Z,13.18
2022-12-13T04:03:41.582Z,16.85
2022-12-13T04:04:14.362Z,14.13
2022-12-13T04:04:46.179Z,12.68
2022-12-13T04:05:18.504Z,12.38
2022-12-13T04:05:51.454Z,14.35
2022-12-13T04:06:25.438Z,15.88
2022-12-13T04:07:01.394Z,13.30
2022-12-13T04:07:34.441Z,16.23
2022-12-13T04:08:22.008Z,12.00
2022-12-13T04:08:55.501Z,12.70
2022-12-13T04:09:27.321Z,11.07
2022-12-13T04:09:59.111Z,14.80
2022-12-13T04:10:31.972Z,17.13
2022-12-13T04:11:24.603Z,17.20
2022-12-13T04:12:15.050Z,14.35
2022-12-13T04:13:05.573Z,13.20
2022-12-13T04:13:37.372Z,13.35
2022-12-13T04:14:10.140Z,14.00
2022-12-13T04:14:41.940Z,14.32
2022-12-13T04:15:14.028Z,14.52
2022-12-13T04:15:48.972Z,15.73
2022-12-13T04:16:21.599Z,15.18
2022-12-13T04:16:53.636Z,12.20
2022-12-13T04:17:27.795Z,17.40
2022-12-13T04:17:59.591Z,11.98
2022-12-13T04:18:31.377Z,14.35
2022-12-13T04:19:04.340Z,12.65
2022-12-13T04:19:36.240Z,14.98
2022-12-13T04:20:09.068Z,13.98
2022-12-13T04:20:41.852Z,13.50
2022-12-13T04:21:13.648Z,14.60
2022-12-13T04:21:45.465Z,14.77
2022-12-13T04:22:24.684Z,12.45
2022-12-13T04:22:56.794Z,12.30
2022-12-13T04:23:28.619Z,13.15
2022-12-13T04:24:01.543Z,15.20
2022-12-13T04:24:33.335Z,12.82
2022-12-13T04:25:05.772Z,14.38
2022-12-13T04:25:39.124Z,19.08
2022-12-13T04:26:11.004Z,12.90
2022-12-13T04:26:42.777Z,13.00
2022-12-13T04:27:15.597Z,13.32
2022-12-13T04:27:47.348Z,13.80
2022-12-13T04:28:22.230Z,11.35
2022-12-13T04:28:55.683Z,15.30
2022-12-13T04:29:27.617Z,11.25
2022-12-13T04:30:08.011Z,14.55
2022-12-13T04:30:40.779Z,12.02
2022-12-13T04:31:12.658Z,14.73
2022-12-13T04:31:45.493Z,12.45
2022-12-13T04:32:26.772Z,13.52
2022-12-13T04:33:00.581Z,13.48
2022-12-13T04:33:33.744Z,14.93
2022-12-13T04:34:05.519Z,13.30
2022-12-13T04:34:37.901Z,14.55
2022-12-13T04:35:10.753Z,12.63
2022-12-13T04:35:42.552Z,13.30
2022-12-13T04:36:31.149Z,14.30
2022-12-13T04:37:04.603Z,12.48
2022-12-13T04:37:37.354Z,13.93
2022-12-13T04:38:09.160Z,16.48
2022-12-13T04:38:41.009Z,14.73
2022-12-13T04:39:22.078Z,12.10
2022-12-13T04:40:00.573Z,14.73
2022-12-13T04:40:33.855Z,13.60
2022-12-13T04:41:07.591Z,15.52
2022-12-13T04:41:40.301Z,11.30
2022-12-13T04:42:13.477Z,15.45
2022-12-13T04:42:45.246Z,11.98
2022-12-13T04:43:17.055Z,12.20
2022-12-13T04:43:53.435Z,15.48
2022-12-13T04:44:28.143Z,12.45
2022-12-13T04:45:01.683Z,15.70
2022-12-13T04:45:34.513Z,16.38
2022-12-13T04:46:06.362Z,11.88
2022-12-13T04:46:38.390Z,11.80
2022-12-13T04:47:11.154Z,15.52
2022-12-13T04:47:43.445Z,13.80
2022-12-13T04:48:31.007Z,14.10
2022-12-13T04:49:03.510Z,10.85
2022-12-13T04:49:36.579Z,11.13
2022-12-13T04:50:09.154Z,15.85
2022-12-13T04:50:40.931Z,12.50
2022-12-13T04:51:13.951Z,12.25
2022-12-13T04:51:47.814Z,12.68
2022-12-13T04:52:22.202Z,13.85
2022-12-13T04:52:55.544Z,13.98
2022-12-13T04:53:27.418Z,12.93
2022-12-13T04:54:23.519Z,10.85
2022-12-13T04:54:55.471Z,12.10
2022-12-13T04:55:28.247Z,13.68
2022-12-13T04:56:02.156Z,10.77
2022-12-13T04:56:34.962Z,13.77
2022-12-13T04:57:07.907Z,13.65
2022-12-13T04:57:40.956Z,14.95
2022-12-13T04:58:12.712Z,18.30
2022-12-13T04:58:45.100Z,13.90
2022-12-13T04:59:18.027Z,14.63
2022-12-13T04:59:50.104Z,13.70
2022-12-13T05:00:22.313Z,13.88
2022-12-13T05:00:55.217Z,13.90
2022-12-13T05:01:27.066Z,12.02
2022-12-13T05:01:58.975Z,14.23
2022-12-13T05:02:31.793Z,11.73
2022-12-13T05:03:03.865Z,10.82
2022-12-13T05:03:38.848Z,11.15
2022-12-13T05:04:10.607Z,10.98
2022-12-13T05:04:43.425Z,9.55
2022-12-13T05:05:15.465Z,12.88
2022-12-13T05:05:48.447Z,11.13
2022-12-13T05:06:27.659Z,18.17
2022-12-13T05:07:00.630Z,35.58
2022-12-13T05:07:32.416Z,33.75
2022-12-13T05:08:04.938Z,43.00
2022-12-13T05:08:38.599Z,29.10
2022-12-13T05:09:11.435Z,25.05
2022-12-13T05:09:43.463Z,17.88
2022-12-13T05:10:32.188Z,14.93
2022-12-13T05:11:10.323Z,13.25
2022-12-13T05:11:45.488Z,11.70
2022-12-13T05:12:23.148Z,9.73
2022-12-13T05:12:56.345Z,18.17
2022-12-13T05:13:28.131Z,10.07
2022-12-13T05:14:00.915Z,11.40
2022-12-13T05:14:33.134Z,10.93
2022-12-13T05:15:06.740Z,10.95
2022-12-13T05:15:38.597Z,13.18
2022-12-13T05:16:11.713Z,13.48
2022-12-13T05:16:43.565Z,11.27
2022-12-13T05:17:15.383Z,15.68
2022-12-13T05:17:48.179Z,11.43
2022-12-13T05:18:19.975Z,11.93
2022-12-13T05:18:54.090Z,13.32
2022-12-13T05:19:30.988Z,11.02
2022-12-13T05:20:05.263Z,11.40
2022-12-13T05:20:37.093Z,12.10
2022-12-13T05:21:10.808Z,12.23
2022-12-13T05:21:43.588Z,14.73
2022-12-13T05:22:20.506Z,11.13
2022-12-13T05:22:55.014Z,11.48
2022-12-13T05:23:27.784Z,12.27
2022-12-13T05:23:59.565Z,13.48
2022-12-13T05:24:31.876Z,12.23
2022-12-13T05:25:04.980Z,11.05
2022-12-13T05:25:37.087Z,10.73
2022-12-13T05:26:09.277Z,13.18
2022-12-13T05:26:42.198Z,12.05
2022-12-13T05:27:25.611Z,13.05
2022-12-13T05:27:59.272Z,11.10
2022-12-13T05:28:31.637Z,11.32
2022-12-13T05:29:04.531Z,11.40
2022-12-13T05:29:36.392Z,10.65
2022-12-13T05:30:09.549Z,12.20
2022-12-13T05:30:43.142Z,14.45
2022-12-13T05:31:22.943Z,9.73
2022-12-13T05:31:56.820Z,12.00
2022-12-13T05:32:28.696Z,10.77
2022-12-13T05:33:00.510Z,12.07
2022-12-13T05:33:33.496Z,9.93
2022-12-13T05:34:06.636Z,13.07
2022-12-13T05:34:38.441Z,11.10
2022-12-13T05:35:11.253Z,10.00
2022-12-13T05:35:43.050Z,32.90
2022-12-13T05:36:15.852Z,27.90
2022-12-13T05:36:47.672Z,25.33
2022-12-13T05:37:19.471Z,23.33
2022-12-13T05:37:54.076Z,11.18
2022-12-13T05:38:26.776Z,14.93
2022-12-13T05:38:59.571Z,13.02
2022-12-13T05:39:31.443Z,11.32
2022-12-13T05:40:03.597Z,12.40
2022-12-13T05:40:36.384Z,12.30
2022-12-13T05:41:16.703Z,13.13
2022-12-13T05:41:49.718Z,11.32
2022-12-13T05:42:21.601Z,14.75
2022-12-13T05:43:01.693Z,13.90
2022-12-13T05:43:43.272Z,10.93
2022-12-13T05:44:15.448Z,12.15
2022-12-13T05:44:48.229Z,11.18
2022-12-13T05:45:20.577Z,10.93
2022-12-13T05:45:52.469Z,11.25
2022-12-13T05:46:25.296Z,12.60
2022-12-13T05:46:57.086Z,16.95
2022-12-13T05:47:28.896Z,12.50
2022-12-13T05:48:01.817Z,13.70
2022-12-13T05:48:33.652Z,12.15
2022-12-13T05:49:08.002Z,11.32
2022-12-13T05:49:39.845Z,32.38
2022-12-13T05:50:11.875Z,29.95
2022-12-13T05:50:44.643Z,27.05
2022-12-13T05:51:16.442Z,24.15
2022-12-13T05:51:49.235Z,13.88
2022-12-13T05:52:22.364Z,13.57
2022-12-13T05:53:04.829Z,16.92
2022-12-13T05:53:36.756Z,15.52
2022-12-13T05:54:09.517Z,12.98
2022-12-13T05:54:42.944Z,14.60
2022-12-13T05:55:15.582Z,14.13
2022-12-13T05:55:48.517Z,12.38
2022-12-13T05:56:22.596Z,11.27
2022-12-13T05:56:55.990Z,12.50
2022-12-13T05:57:27.866Z,12.63
2022-12-13T05:58:02.304Z,13.88
2022-12-13T05:58:36.317Z,15.40
2022-12-13T05:59:08.404Z,10.57
2022-12-13T05:59:41.195Z,10.30
2022-12-13T06:00:28.666Z,13.32
2022-12-13T06:01:07.968Z,10.38
2022-12-13T06:01:43.630Z,14.00
2022-12-13T06:02:21.419Z,10.15
2022-12-13T06:02:53.849Z,11.23
2022-12-13T06:03:26.831Z,13.25
2022-12-13T06:03:58.810Z,14.38
2022-12-13T06:04:33.102Z,11.50
2022-12-13T06:05:05.544Z,10.75
2022-12-13T06:05:38.581Z,12.20
2022-12-13T06:06:12.250Z,11.82
2022-12-13T06:06:45.056Z,11.77
2022-12-13T06:07:16.906Z,12.70
2022-12-13T06:07:53.601Z,14.00
2022-12-13T06:08:28.829Z,11.80
2022-12-13T06:09:01.724Z,14.40
2022-12-13T06:09:33.563Z,11.55
2022-12-13T06:10:13.015Z,17.35
2022-12-13T06:10:55.037Z,14.27
2022-12-13T06:11:44.602Z,13.30
2022-12-13T06:12:31.596Z,18.33
2022-12-13T06:13:21.876Z,11.38
2022-12-13T06:14:00.665Z,37.58
2022-12-13T06:14:33.153Z,21.88
2022-12-13T06:15:21.532Z,25.88
2022-12-13T06:16:01.713Z,19.13
2022-12-13T06:16:35.360Z,12.55
2022-12-13T06:17:07.202Z,17.98
2022-12-13T06:17:39.096Z,16.00
2022-12-13T06:18:11.872Z,13.23
2022-12-13T06:18:43.753Z,12.30
2022-12-13T06:19:16.499Z,14.48
2022-12-13T06:19:49.985Z,12.27
2022-12-13T06:20:23.364Z,11.98
2022-12-13T06:20:58.912Z,10.70
2022-12-13T06:21:41.629Z,11.90
2022-12-13T06:22:19.189Z,10.80
2022-12-13T06:22:51.268Z,11.10
2022-12-13T06:23:23.057Z,10.98
2022-12-13T06:23:56.032Z,11.20
2022-12-13T06:24:27.831Z,15.00
2022-12-13T06:25:01.493Z,10.45
2022-12-13T06:25:33.279Z,11.60
2022-12-13T06:26:08.103Z,14.40
2022-12-13T06:26:39.891Z,30.73
2022-12-13T06:27:11.871Z,46.15
2022-12-13T06:27:45.326Z,42.28
2022-12-13T06:28:17.488Z,30.23
2022-12-13T06:28:50.273Z,22.38
2022-12-13T06:29:25.557Z,18.50
2022-12-13T06:30:02.416Z,14.52
2022-12-13T06:30:34.727Z,14.35
2022-12-13T06:31:06.612Z,14.30
2022-12-13T06:31:39.407Z,15.70
2022-12-13T06:32:11.361Z,18.75
2022-12-13T06:32:44.168Z,11.50
2022-12-13T06:33:15.961Z,12.18
2022-12-13T06:33:56.425Z,15.55
2022-12-13T06:34:28.695Z,13.63
2022-12-13T06:35:28.818Z,13.48
2022-12-13T06:35:57.344Z,13.07
2022-12-13T06:36:30.504Z,15.20
2022-12-13T06:37:03.621Z,11.95
2022-12-13T06:37:35.391Z,12.15
2022-12-13T06:38:12.010Z,13.43
2022-12-13T06:38:44.085Z,13.85
2022-12-13T06:39:16.903Z,10.90
2022-12-13T06:39:48.663Z,13.05
2022-12-13T06:40:23.341Z,13.60
2022-12-13T06:40:55.276Z,12.98
2022-12-13T06:41:33.381Z,14.98
2022-12-13T06:42:07.963Z,14.35
2022-12-13T06:42:39.836Z,13.20
2022-12-13T06:43:12.614Z,11.00
2022-12-13T06:43:45.568Z,11.73
2022-12-13T06:44:18.343Z,12.63
2022-12-13T06:44:51.803Z,11.80
2022-12-13T06:45:29.141Z,16.48
2022-12-13T06:46:03.221Z,11.00
2022-12-13T06:46:36.223Z,15.57
2022-12-13T06:47:12.977Z,12.50
2022-12-13T06:48:05.406Z,19.80
2022-12-13T06:48:37.307Z,12.50
2022-12-13T06:49:09.223Z,12.68
2022-12-13T06:49:44.192Z,14.18
2022-12-13T06:50:17.780Z,11.40
2022-12-13T06:50:50.550Z,13.75
2022-12-13T06:51:23.228Z,15.48
2022-12-13T06:52:06.048Z,19.33
2022-12-13T06:52:37.898Z,13.25
2022-12-13T06:53:09.689Z,12.23
2022-12-13T06:53:42.687Z,13.43
2022-12-13T06:54:14.496Z,11.65
2022-12-13T06:54:47.256Z,13.75
2022-12-13T06:55:23.690Z,16.08
2022-12-13T06:55:57.275Z,12.68
2022-12-13T06:56:29.878Z,14.32
2022-12-13T06:57:01.988Z,14.82
2022-12-13T06:57:34.912Z,12.85
2022-12-13T06:58:06.704Z,13.45
2022-12-13T06:58:38.874Z,11.52
2022-12-13T06:59:11.677Z,11.98
2022-12-13T06:59:43.951Z,14.65
2022-12-13T07:00:22.444Z,12.93
2022-12-13T07:01:02.478Z,11.23
2022-12-13T07:01:36.999Z,13.63
2022-12-13T07:02:24.177Z,11.02
2022-12-13T07:02:57.786Z,14.63
2022-12-13T07:03:31.905Z,12.18
2022-12-13T07:04:03.822Z,11.98
2022-12-13T07:04:35.620Z,11.80
2022-12-13T07:05:10.401Z,15.13
2022-12-13T07:05:43.584Z,14.55
2022-12-13T07:06:19.020Z,15.65
2022-12-13T07:06:50.930Z,13.45
2022-12-13T07:07:24.564Z,11.50
2022-12-13T07:07:56.478Z,13.20
2022-12-13T07:08:29.302Z,12.45
2022-12-13T07:09:01.194Z,14.18
2022-12-13T07:09:34.496Z,11.20
2022-12-13T07:10:07.171Z,15.00
2022-12-13T07:10:55.183Z,12.13
2022-12-13T07:11:30.436Z,13.40
2022-12-13T07:12:05.448Z,13.73
2022-12-13T07:12:37.453Z,14.80
2022-12-13T07:13:10.245Z,14.63
2022-12-13T07:13:43.035Z,13.20
2022-12-13T07:14:15.816Z,21.88
2022-12-13T07:14:47.775Z,20.20
2022-12-13T07:15:19.602Z,37.38
2022-12-13T07:15:52.368Z,28.90
2022-12-13T07:16:32.924Z,28.52
2022-12-13T07:17:05.703Z,24.27
2022-12-13T07:17:37.504Z,21.42
2022-12-13T07:18:10.299Z,17.08
2022-12-13T07:18:42.128Z,21.52
2022-12-13T07:19:22.954Z,13.35
2022-12-13T07:19:56.365Z,17.10
2022-12-13T07:20:33.953Z,15.20
2022-12-13T07:21:08.117Z,13.90
2022-12-13T07:21:40.871Z,16.00
2022-12-13T07:22:12.675Z,17.33
2022-12-13T07:22:48.456Z,15.63
2022-12-13T07:23:24.629Z,16.02
2022-12-13T07:23:57.063Z,15.57
2022-12-13T07:24:28.838Z,16.42
2022-12-13T07:25:01.563Z,14.25
2022-12-13T07:25:33.382Z,17.20
2022-12-13T07:26:07.913Z,15.05
2022-12-13T07:26:39.711Z,16.58
2022-12-13T07:27:14.305Z,14.07
2022-12-13T07:27:46.064Z,14.38
2022-12-13T07:28:17.950Z,13.63
2022-12-13T07:28:55.081Z,13.77
2022-12-13T07:29:27.333Z,14.70
2022-12-13T07:30:00.220Z,16.92
2022-12-13T07:30:34.219Z,16.05
2022-12-13T07:31:15.461Z,15.52
2022-12-13T07:31:47.284Z,17.17